الصفحة الرئيسية
METAR-TAF:

METAR-TAF

مطار :

مطار قوانغتشو باييون الدولي

قوانغتشو, جمهورية الصين الشعبية

دائرة عرض: 23-10N, خط طول: 113-20E, ارتفاع: 8 متر

مراقبة الطقس الحالي

تاريخ ووقت الإصدار 34 دقيقة قبل الساعة 05:00UTC
ريح 10 عقدة من الجنوب/الجنوب الشرقي
درجة الحرارة 33°درجة مئوية
الرطوبة 56%
ضغط 1010 hPa
الرؤية 10 كم أو أكثر
غيوم متفرقة على ارتفاع 4000 قدم

METAR: ZGGG 130500Z 16005MPS 9999 SCT040 33/23 Q1010 NOSIG

زمن: 13:34 (05:34 UTC)

توقعات

تاريخ ووقت الإصدار 8ساعات و 33 دقيقة قبل الساعة 21:01UTC
التوقعات صالحة من13 الساعة 00 UTC إلى 13 الساعة 24 UTC
ريح 6 عقدة من الجنوب/الجنوب الشرقي
الرؤية: 6000 متر
غيوم مفككة على ارتفاع 4000 قدم

TAF: ZGGG 122101Z 1300/1324 16003MPS 6000 BKN040 TX31/1307Z TN24/1322Z

أرصاد الطقس والتوقعات من أكثر من 4000 مطار (تقارير الطقس للمطار METAR والتنبؤ بالطقس بالمطارTAF).

المحطات المتاحة هي النقط الصفراء والحمراء على الخريطة.

حرك المؤشر فوق النقطة لمعرفة اسم المحطة.

ثم انقر لمعرفة أرصاد وتوقعات الطقس.

لتغيير الخارطة: اضغط على الأزرار الخضراء مع رمز الصليب الأسود للتكبير. على الزر الأخضر مع شرطة للتصغير، أو على الأسهم الخضراء للخرائط المجاورة.


METAR-TAF: